Time;durP1;ratioP1;P1;durP2;ratioP2;P2;SDS_P1;SDS_P2;PMS_P1;PMS_P2;Temp;Humidity;BMP_temperature;BMP_pressure;BME280_temperature;BME280_humidity;BME280_pressure;Samples;Min_cycle;Max_cycle;Signal;HPM_P1;HPM_P2
2021/05/24 00:02:18;;;;;;;10.40;5.17;;;;;;;13.05;71.48;101047.85;1769697;81;20933;-72
2021/05/24 00:04:45;;;;;;;11.45;4.92;;;;;;;13.05;71.43;101049.17;1769544;79;20974;-70
2021/05/24 00:07:13;;;;;;;7.50;4.53;;;;;;;13.06;71.49;101049.05;1769658;81;20874;-71
2021/05/24 00:09:41;;;;;;;9.35;4.97;;;;;;;13.08;71.38;101046.33;1769478;81;20890;-72
2021/05/24 00:12:09;;;;;;;8.58;5.08;;;;;;;13.07;71.42;101051.20;1769685;79;20894;-72
2021/05/24 00:14:38;;;;;;;12.60;5.35;;;;;;;13.06;71.42;101046.89;1769561;81;20957;-72
2021/05/24 00:17:06;;;;;;;7.62;4.60;;;;;;;13.05;71.62;101045.22;1769441;79;20929;-72
2021/05/24 00:19:34;;;;;;;11.22;5.62;;;;;;;13.04;72.04;101046.14;1769676;79;20977;-71
2021/05/24 00:22:02;;;;;;;10.23;5.58;;;;;;;13.03;72.12;101044.47;1769699;81;21086;-71
2021/05/24 00:24:29;;;;;;;10.60;5.85;;;;;;;13.03;72.33;101050.58;1769587;79;20951;-72
2021/05/24 00:26:56;;;;;;;11.00;5.03;;;;;;;13.02;72.46;101047.55;1769625;79;21001;-70
2021/05/24 00:29:23;;;;;;;19.55;5.58;;;;;;;13.01;72.51;101044.56;1769432;81;20929;-70
2021/05/24 00:31:51;;;;;;;19.65;6.28;;;;;;;12.97;72.66;101046.17;1769487;81;20922;-71
2021/05/24 00:34:18;;;;;;;13.85;5.58;;;;;;;12.97;72.86;101050.95;1769509;81;21419;-71
2021/05/24 00:36:47;;;;;;;8.43;4.60;;;;;;;13.00;72.98;101041.53;1769460;80;20973;-71
2021/05/24 00:39:14;;;;;;;14.03;5.72;;;;;;;13.02;72.88;101041.45;1769698;79;20906;-71
2021/05/24 00:41:43;;;;;;;9.65;5.65;;;;;;;13.01;72.79;101041.92;1769486;80;21372;-71
2021/05/24 00:44:10;;;;;;;11.30;5.33;;;;;;;12.99;72.82;101039.86;1769489;81;20925;-71
2021/05/24 00:46:37;;;;;;;15.32;5.20;;;;;;;12.98;72.96;101041.27;1769720;81;21488;-70
2021/05/24 00:49:05;;;;;;;12.00;4.45;;;;;;;12.95;73.18;101040.98;1769464;79;21458;-69
2021/05/24 00:51:32;;;;;;;11.83;5.70;;;;;;;12.93;73.48;101036.77;1769502;81;20898;-70
2021/05/24 00:54:00;;;;;;;8.93;5.95;;;;;;;12.90;73.60;101036.50;1769807;79;20926;-71
2021/05/24 00:56:27;;;;;;;16.52;6.10;;;;;;;12.90;73.90;101039.61;1769666;81;21050;-69
2021/05/24 00:58:55;;;;;;;12.73;6.33;;;;;;;12.90;74.13;101034.34;1769520;79;21078;-69
2021/05/24 01:01:23;;;;;;;10.40;4.95;;;;;;;12.91;74.21;101037.33;1749353;80;20918;-69
2021/05/24 01:03:51;;;;;;;13.35;5.17;;;;;;;12.91;74.34;101036.86;1769570;81;20906;-69
2021/05/24 01:06:20;;;;;;;11.50;5.97;;;;;;;12.91;74.44;101034.70;1769540;81;21016;-71
2021/05/24 01:08:48;;;;;;;16.00;5.75;;;;;;;12.92;74.45;101034.61;1769645;79;20957;-70
2021/05/24 01:11:15;;;;;;;12.68;5.35;;;;;;;12.93;74.50;101031.02;1769466;81;21494;-70
2021/05/24 01:13:44;;;;;;;13.60;6.03;;;;;;;12.95;74.52;101026.51;1769445;79;21503;-70
2021/05/24 01:16:11;;;;;;;13.70;6.47;;;;;;;12.95;74.39;101024.36;1769566;79;20902;-69
2021/05/24 01:18:40;;;;;;;11.00;5.40;;;;;;;12.96;74.53;101019.45;1769558;81;20946;-71
2021/05/24 01:21:11;;;;;;;12.80;6.65;;;;;;;12.98;74.46;101022.83;1769674;81;20969;-71
2021/05/24 01:23:45;;;;;;;12.58;6.22;;;;;;;12.98;74.25;101018.88;1769058;79;21013;-71
2021/05/24 01:26:14;;;;;;;15.32;7.97;;;;;;;12.97;73.94;101016.73;1769699;81;20890;-70
2021/05/24 01:28:41;;;;;;;13.95;6.85;;;;;;;12.94;73.89;101012.98;1769213;80;20894;-71
2021/05/24 01:31:08;;;;;;;13.00;6.90;;;;;;;12.91;73.96;101017.11;1769635;81;21486;-71
2021/05/24 01:33:35;;;;;;;12.98;7.15;;;;;;;12.89;74.31;101015.52;1769549;81;20997;-70
2021/05/24 01:36:05;;;;;;;10.75;4.90;;;;;;;12.85;74.34;101013.58;1770330;80;21674;-70
2021/05/24 01:38:32;;;;;;;10.63;6.60;;;;;;;12.81;74.59;101008.97;1776879;80;20926;-72
2021/05/24 01:41:00;;;;;;;9.85;5.87;;;;;;;12.79;74.92;101012.16;1777970;80;20917;-72
2021/05/24 01:43:30;;;;;;;18.50;6.78;;;;;;;12.78;75.05;101011.80;1777993;80;21499;-72
2021/05/24 01:45:57;;;;;;;12.55;7.03;;;;;;;12.78;74.96;100997.77;1778039;80;21501;-71
2021/05/24 01:48:24;;;;;;;12.55;6.58;;;;;;;12.76;74.93;101006.23;1778149;80;21063;-72
2021/05/24 01:50:51;;;;;;;15.18;6.90;;;;;;;12.79;75.10;101004.74;1777998;80;21335;-72
2021/05/24 01:53:20;;;;;;;12.85;6.72;;;;;;;12.83;75.03;101003.61;1777941;80;21383;-72
2021/05/24 01:55:48;;;;;;;10.30;6.95;;;;;;;12.88;74.88;101005.47;1778023;80;21004;-72
2021/05/24 01:58:15;;;;;;;16.37;8.90;;;;;;;12.88;74.62;101001.53;1778051;80;20961;-73
2021/05/24 02:00:42;;;;;;;20.37;8.38;;;;;;;12.87;74.58;101007.72;1778147;80;21040;-73
2021/05/24 02:03:09;;;;;;;16.50;6.95;;;;;;;12.86;74.60;101005.56;1779162;80;20985;-73
2021/05/24 02:05:36;;;;;;;17.00;7.08;;;;;;;12.88;74.49;101003.32;1779354;80;20985;-73
2021/05/24 02:08:03;;;;;;;20.08;8.30;;;;;;;12.88;74.65;101009.90;1779201;80;20906;-73
2021/05/24 02:10:33;;;;;;;17.90;8.20;;;;;;;12.85;74.69;101005.68;1778485;79;21477;-74
2021/05/24 02:13:01;;;;;;;21.77;7.72;;;;;;;12.84;74.90;101003.49;1780300;80;21100;-74
2021/05/24 02:15:32;;;;;;;13.68;7.10;;;;;;;12.88;75.13;100998.89;1778037;79;20957;-73
2021/05/24 02:17:59;;;;;;;14.63;6.83;;;;;;;12.89;75.09;100987.41;1778091;80;20941;-75
2021/05/24 02:20:27;;;;;;;14.53;7.92;;;;;;;12.92;75.10;100996.44;1777962;79;20973;-73
2021/05/24 02:22:56;;;;;;;15.03;7.50;;;;;;;12.95;75.12;100990.13;1778064;80;21102;-73
2021/05/24 02:25:23;;;;;;;17.35;7.85;;;;;;;12.99;75.12;100989.84;1778322;80;21061;-73
2021/05/24 02:27:50;;;;;;;19.02;8.15;;;;;;;13.04;74.88;100994.80;1778242;79;21415;-72
2021/05/24 02:30:20;;;;;;;19.52;7.65;;;;;;;13.05;74.73;100996.52;1778071;80;20870;-71
2021/05/24 02:32:47;;;;;;;13.55;7.85;;;;;;;13.06;74.65;100996.39;1778292;80;20964;-71
2021/05/24 02:35:16;;;;;;;20.60;8.23;;;;;;;13.07;74.62;101007.76;1778267;80;21576;-71
2021/05/24 02:37:43;;;;;;;16.23;7.08;;;;;;;13.07;74.60;101005.12;1772368;80;21044;-71
2021/05/24 02:40:11;;;;;;;17.15;7.72;;;;;;;13.05;74.61;101006.56;1769664;81;21411;-71
2021/05/24 02:42:38;;;;;;;20.75;8.05;;;;;;;13.04;74.85;101018.50;1769775;81;21510;-73
2021/05/24 02:45:08;;;;;;;15.65;8.40;;;;;;;12.99;75.08;101020.11;1769715;81;20969;-72
2021/05/24 02:47:35;;;;;;;14.40;6.70;;;;;;;12.93;75.35;101016.55;1769689;81;20981;-72
2021/05/24 02:50:06;;;;;;;10.60;5.80;;;;;;;12.88;75.30;101018.64;1769780;81;21702;-72
2021/05/24 02:52:33;;;;;;;16.93;7.15;;;;;;;12.86;74.97;101015.25;1769310;81;21589;-72
2021/05/24 02:55:00;;;;;;;12.30;5.95;;;;;;;12.89;75.32;101016.36;1769678;81;20902;-72
2021/05/24 02:57:27;;;;;;;15.28;7.08;;;;;;;12.94;75.47;101010.80;1769737;81;20993;-72
2021/05/24 02:59:53;;;;;;;14.75;8.50;;;;;;;12.99;75.28;101016.16;1769696;81;20859;-72
2021/05/24 03:02:26;;;;;;;16.23;6.60;;;;;;;13.03;75.01;101007.61;1769787;81;21602;-73
2021/05/24 03:04:49;;;;;;;12.15;7.28;;;;;;;13.08;74.97;101006.83;1769064;80;20930;-73
2021/05/24 03:07:15;;;;;;;14.55;6.45;;;;;;;13.16;74.78;101007.20;1769617;79;21009;-72
2021/05/24 03:09:43;;;;;;;14.50;7.12;;;;;;;13.24;74.62;101008.84;1769739;81;20886;-71
2021/05/24 03:12:10;;;;;;;10.40;6.70;;;;;;;13.34;74.60;101001.23;1769615;79;20925;-72
2021/05/24 03:14:39;;;;;;;11.12;6.97;;;;;;;13.40;74.59;100999.48;1769530;81;21092;-70
2021/05/24 03:17:06;;;;;;;10.58;6.58;;;;;;;13.50;74.52;100998.91;1769616;81;20981;-71
2021/05/24 03:19:33;;;;;;;11.10;5.95;;;;;;;13.60;74.32;100999.48;1769686;81;20901;-70
2021/05/24 03:22:01;;;;;;;20.12;6.17;;;;;;;13.72;74.10;100997.84;1769515;79;21526;-72
2021/05/24 03:24:28;;;;;;;11.43;6.10;;;;;;;13.87;74.08;100997.27;1769633;81;20981;-71
2021/05/24 03:26:55;;;;;;;12.23;5.87;;;;;;;14.09;73.30;100994.88;1769676;81;21513;-71
2021/05/24 03:29:21;;;;;;;12.63;5.72;;;;;;;14.35;73.03;101003.24;1769680;81;21106;-71
2021/05/24 03:31:50;;;;;;;8.10;5.53;;;;;;;14.62;72.92;101012.36;1769652;81;20875;-71
2021/05/24 03:34:17;;;;;;;9.68;5.30;;;;;;;14.84;72.47;101007.72;1769603;81;20989;-71
2021/05/24 03:36:43;;;;;;;15.32;7.05;;;;;;;15.22;71.39;101004.09;1769760;80;20985;-72
2021/05/24 03:39:11;;;;;;;11.90;3.47;;;;;;;15.22;71.39;101004.09;1769542;79;21841;-72
2021/05/24 03:41:38;;;;;;;4.08;2.45;;;;;;;15.40;67.00;101000.56;1769484;81;21009;-71
2021/05/24 03:44:05;;;;;;;3.00;1.95;;;;;;;15.89;61.92;100999.55;1769552;81;21490;-71
2021/05/24 03:46:32;;;;;;;8.58;4.30;;;;;;;15.89;61.92;100954.58;1769635;79;20886;-72
2021/05/24 03:49:00;;;;;;;15.72;5.45;;;;;;;16.16;62.36;100999.22;1769587;81;20941;-71
2021/05/24 03:51:27;;;;;;;9.93;4.80;;;;;;;16.37;62.96;101004.17;1769640;81;21097;-72
2021/05/24 03:53:54;;;;;;;13.30;5.67;;;;;;;16.54;64.12;101000.67;1769597;81;20997;-70
2021/05/24 03:56:21;;;;;;;8.75;4.92;;;;;;;16.79;64.84;101004.88;1769711;81;20890;-72
2021/05/24 03:58:48;;;;;;;4.75;2.08;;;;;;;16.79;64.84;101004.88;1769601;79;20985;-72
2021/05/24 04:01:16;;;;;;;6.92;2.52;;;;;;;16.90;60.82;101002.23;1769628;81;20966;-72
2021/05/24 04:03:43;;;;;;;5.45;1.67;;;;;;;17.06;58.76;100997.86;1769738;79;21062;-72
2021/05/24 04:06:14;;;;;;;4.53;1.85;;;;;;;17.25;57.70;100991.05;1769478;81;21430;-71
2021/05/24 04:08:47;;;;;;;3.27;1.25;;;;;;;17.43;56.29;100991.33;1769495;81;21436;-72
2021/05/24 04:11:10;;;;;;;3.05;1.35;;;;;;;17.59;55.27;100995.73;1767686;80;21013;-72
2021/05/24 04:13:39;;;;;;;8.90;2.10;;;;;;;17.75;54.46;100998.77;1769560;79;20968;-71
2021/05/24 04:16:06;;;;;;;6.70;1.90;;;;;;;17.88;54.06;101001.27;1769483;81;21046;-71
2021/05/24 04:18:35;;;;;;;3.77;1.72;;;;;;;17.98;53.71;100995.52;1769438;79;20886;-71
2021/05/24 04:21:04;;;;;;;2.58;1.70;;;;;;;18.10;52.76;100990.16;1769482;81;20886;-72
2021/05/24 04:23:31;;;;;;;2.37;2.00;;;;;;;18.20;52.67;100995.02;1769579;81;20922;-72
2021/05/24 04:25:58;;;;;;;4.20;1.90;;;;;;;18.29;52.06;100996.86;1769625;79;20969;-71
2021/05/24 04:28:25;;;;;;;4.90;1.87;;;;;;;18.40;52.18;101000.75;1769736;81;20989;-72
2021/05/24 04:30:52;;;;;;;3.50;1.45;;;;;;;18.54;51.66;101005.34;1769532;79;21418;-75
2021/05/24 04:33:19;;;;;;;5.70;1.70;;;;;;;18.73;50.70;101001.44;1769630;81;20910;-71
2021/05/24 04:35:46;;;;;;;5.58;1.75;;;;;;;18.96;49.80;100999.41;1769490;79;21443;-74
2021/05/24 04:38:13;;;;;;;6.22;2.22;;;;;;;19.29;48.83;100998.69;1774199;80;20937;-75
2021/05/24 04:40:40;;;;;;;5.72;1.47;;;;;;;19.67;47.57;100987.67;1777980;79;21044;-75
2021/05/24 04:43:07;;;;;;;3.22;1.80;;;;;;;20.02;46.92;100978.25;1778167;80;20858;-74
2021/05/24 04:45:34;;;;;;;6.60;1.92;;;;;;;20.29;46.04;100980.95;1777808;79;20902;-73
2021/05/24 04:48:01;;;;;;;3.85;2.05;;;;;;;20.41;45.80;100969.63;1777893;80;20898;-73
2021/05/24 04:50:28;;;;;;;4.87;1.82;;;;;;;20.47;45.58;100970.34;1778042;80;20925;-74
2021/05/24 04:52:56;;;;;;;9.18;3.60;;;;;;;20.48;45.10;100974.70;1778010;80;21049;-73
2021/05/24 04:55:22;;;;;;;11.38;3.75;;;;;;;20.44;45.46;100976.48;1777894;80;21362;-70
2021/05/24 04:57:49;;;;;;;14.45;5.25;;;;;;;20.39;44.73;100983.59;1778065;80;20925;-75
2021/05/24 05:00:16;;;;;;;16.97;6.22;;;;;;;20.31;43.73;100978.64;1778092;80;20989;-77
2021/05/24 05:02:43;;;;;;;20.80;7.55;;;;;;;20.22;44.14;100983.02;1778086;79;20937;-73
2021/05/24 05:05:11;;;;;;;13.32;5.00;;;;;;;20.13;44.53;101001.20;1778028;80;21083;-75
2021/05/24 05:07:38;;;;;;;10.10;3.40;;;;;;;20.06;44.79;101015.59;1777855;80;21474;-75
2021/05/24 05:10:07;;;;;;;13.90;3.15;;;;;;;19.98;45.06;101023.45;1777848;80;21005;-76
2021/05/24 05:12:34;;;;;;;4.67;2.47;;;;;;;19.90;45.41;101027.30;1778018;80;21442;-77
2021/05/24 05:15:04;;;;;;;9.98;2.20;;;;;;;19.83;45.53;101036.35;1777879;79;20893;-77
2021/05/24 05:17:31;;;;;;;8.43;2.20;;;;;;;19.76;45.57;101037.91;1777860;80;21798;-76
2021/05/24 05:19:58;;;;;;;9.35;2.72;;;;;;;19.71;45.77;101042.33;1777955;80;20944;-75
2021/05/24 05:22:26;;;;;;;3.40;2.20;;;;;;;19.65;45.77;101042.38;1777863;80;21521;-76
2021/05/24 05:24:53;;;;;;;7.22;2.02;;;;;;;19.58;45.93;101049.22;1777981;80;20925;-78
2021/05/24 05:27:21;;;;;;;7.83;2.22;;;;;;;19.56;46.12;101053.84;1777676;80;20874;-76
2021/05/24 05:29:48;;;;;;;15.28;3.67;;;;;;;19.52;46.33;101058.25;1778035;80;21065;-75
2021/05/24 05:32:17;;;;;;;14.58;2.50;;;;;;;19.49;46.50;101056.72;1777753;79;21494;-76
2021/05/24 05:34:44;;;;;;;10.13;2.72;;;;;;;19.46;46.66;101057.84;1778072;80;21427;-75
2021/05/24 05:37:11;;;;;;;8.43;3.33;;;;;;;19.43;46.90;101051.95;1777899;80;20945;-76
2021/05/24 05:39:38;;;;;;;13.98;2.70;;;;;;;19.42;47.07;101045.80;1741877;82;20918;-75
2021/05/24 05:42:05;;;;;;;5.37;2.02;;;;;;;19.41;47.14;101041.96;1741841;82;21857;-74
2021/05/24 05:44:32;;;;;;;8.80;2.35;;;;;;;19.40;47.32;101031.79;1741976;82;21030;-72
2021/05/24 05:46:59;;;;;;;8.98;2.15;;;;;;;19.39;47.35;101027.47;1741835;82;20938;-73
2021/05/24 05:49:26;;;;;;;5.05;2.02;;;;;;;19.41;47.45;101028.16;1742261;82;20894;-74
2021/05/24 05:51:52;;;;;;;6.22;2.35;;;;;;;19.42;47.51;101032.98;1742018;82;20929;-72
2021/05/24 05:54:19;;;;;;;7.47;3.15;;;;;;;19.44;47.66;101039.02;1742845;82;21167;-72
2021/05/24 05:56:48;;;;;;;8.88;2.95;;;;;;;19.45;47.75;101038.88;1742695;82;20954;-72
2021/05/24 05:59:19;;;;;;;11.95;2.45;;;;;;;19.46;47.90;101037.89;1743156;82;21037;-71
2021/05/24 06:01:44;;;;;;;8.23;2.42;;;;;;;19.44;48.10;101031.87;1742442;81;21383;-72
2021/05/24 06:04:11;;;;;;;4.10;1.98;;;;;;;19.46;48.18;101039.72;1744870;82;20906;-71
2021/05/24 06:06:38;;;;;;;5.92;2.85;;;;;;;19.44;48.33;101036.35;1742171;82;21059;-72
2021/05/24 06:09:05;;;;;;;13.85;2.12;;;;;;;19.43;48.59;101040.84;1741901;82;21553;-70
2021/05/24 06:11:32;;;;;;;11.48;2.80;;;;;;;19.41;48.94;101057.92;1742040;82;20922;-70
2021/05/24 06:13:59;;;;;;;8.28;2.47;;;;;;;19.37;49.55;101078.63;1742089;81;20886;-73
2021/05/24 06:16:26;;;;;;;5.35;2.25;;;;;;;19.35;50.20;101083.23;1742091;82;21041;-68
2021/05/24 06:18:55;;;;;;;10.32;4.15;;;;;;;19.33;50.60;101077.71;1742033;82;21091;-72
2021/05/24 06:21:22;;;;;;;22.13;7.58;;;;;;;19.29;51.14;101068.32;1742021;81;20938;-73
2021/05/24 06:23:49;;;;;;;20.65;9.65;;;;;;;19.27;51.87;101069.78;1741931;82;21499;-72
2021/05/24 06:26:16;;;;;;;20.32;9.45;;;;;;;19.24;52.77;101069.57;1742015;82;21005;-72
2021/05/24 06:28:43;;;;;;;25.08;10.50;;;;;;;19.21;53.48;101061.88;1742072;81;21391;-71
2021/05/24 06:31:10;;;;;;;25.10;10.15;;;;;;;19.19;53.99;101063.00;1741953;82;21070;-71
2021/05/24 06:33:37;;;;;;;20.88;9.90;;;;;;;19.18;54.69;101058.14;1741946;82;21005;-72
2021/05/24 06:36:05;;;;;;;28.67;11.70;;;;;;;19.18;55.43;101067.45;1742078;82;20898;-72
2021/05/24 06:38:32;;;;;;;21.90;10.45;;;;;;;19.18;56.30;101059.48;1753159;80;20942;-72
2021/05/24 06:40:59;;;;;;;25.45;10.65;;;;;;;19.18;56.87;101054.66;1769633;81;20996;-73
2021/05/24 06:43:25;;;;;;;21.62;10.72;;;;;;;19.18;57.65;101057.31;1769730;81;21618;-72
2021/05/24 06:45:53;;;;;;;18.07;10.68;;;;;;;19.18;58.35;101051.99;1769624;79;20874;-72
2021/05/24 06:48:19;;;;;;;15.80;9.45;;;;;;;19.19;59.07;101041.23;1769805;81;21375;-75
2021/05/24 06:50:47;;;;;;;15.60;7.40;;;;;;;19.21;59.36;101040.61;1769618;79;21502;-73
2021/05/24 06:53:15;;;;;;;13.00;7.60;;;;;;;19.23;59.61;101047.09;1769195;81;20933;-73
2021/05/24 06:55:43;;;;;;;12.05;7.75;;;;;;;19.28;60.06;101048.04;1769652;81;21865;-72
2021/05/24 06:58:10;;;;;;;11.70;6.90;;;;;;;19.30;60.21;101038.08;1769605;81;20890;-71
2021/05/24 07:00:37;;;;;;;11.20;6.92;;;;;;;19.30;60.31;101046.92;1769484;79;20954;-72
2021/05/24 07:03:05;;;;;;;23.40;10.13;;;;;;;19.30;60.26;101046.05;1769551;81;20914;-73
2021/05/24 07:05:31;;;;;;;9.60;6.55;;;;;;;19.31;60.37;101049.91;1769794;81;20890;-73
2021/05/24 07:07:59;;;;;;;14.93;6.45;;;;;;;19.35;60.74;101046.50;1769653;79;21015;-72
2021/05/24 07:10:26;;;;;;;7.85;5.85;;;;;;;19.39;60.75;101048.74;1769568;81;20946;-74
2021/05/24 07:12:54;;;;;;;12.43;5.33;;;;;;;19.44;60.52;101052.31;1769671;79;20874;-73
2021/05/24 07:15:21;;;;;;;10.60;5.45;;;;;;;19.46;60.11;101055.17;1769386;79;21046;-75
2021/05/24 07:17:50;;;;;;;10.55;4.87;;;;;;;19.49;60.08;101052.73;1769771;81;20918;-74
2021/05/24 07:20:17;;;;;;;12.53;6.12;;;;;;;19.50;60.16;101046.44;1769571;81;21082;-75
2021/05/24 07:22:44;;;;;;;11.10;5.60;;;;;;;19.54;60.46;101054.50;1769648;79;20910;-78
2021/05/24 07:25:12;;;;;;;6.53;5.25;;;;;;;19.60;61.01;101062.39;1769641;81;20894;-73
2021/05/24 07:27:40;;;;;;;11.12;5.53;;;;;;;19.65;60.69;101064.14;1769469;81;21431;-74
2021/05/24 07:30:10;;;;;;;10.95;6.58;;;;;;;19.70;60.94;101059.75;1769614;81;21014;-72
2021/05/24 07:32:37;;;;;;;7.92;5.35;;;;;;;19.78;60.98;101059.41;1769635;80;21514;-73
2021/05/24 07:35:05;;;;;;;8.20;5.30;;;;;;;19.86;61.01;101068.03;1769545;81;21411;-72
2021/05/24 07:37:32;;;;;;;10.58;5.20;;;;;;;19.93;61.19;101077.62;1769516;81;20955;-72
2021/05/24 07:39:59;;;;;;;8.05;6.65;;;;;;;19.99;60.26;101063.75;1769516;79;20989;-73
2021/05/24 07:42:28;;;;;;;6.22;5.33;;;;;;;20.06;59.79;101066.18;1769806;79;20930;-72
2021/05/24 07:44:55;;;;;;;6.33;4.62;;;;;;;20.13;59.56;101073.11;1769497;81;21863;-73
2021/05/24 07:47:23;;;;;;;10.15;5.05;;;;;;;20.19;59.32;101068.55;1749809;81;21398;-71
2021/05/24 07:49:50;;;;;;;7.97;6.20;;;;;;;20.26;59.51;101078.97;1769416;79;20902;-75
2021/05/24 07:52:17;;;;;;;11.20;5.33;;;;;;;20.29;58.39;101078.16;1769606;79;20952;-73
2021/05/24 07:54:44;;;;;;;10.05;4.97;;;;;;;20.30;59.08;101083.02;1769713;81;21001;-74
2021/05/24 07:57:11;;;;;;;9.88;6.05;;;;;;;20.31;59.01;101082.53;1769543;81;21052;-73
2021/05/24 07:59:40;;;;;;;12.00;7.25;;;;;;;20.29;58.09;101076.84;1769559;81;20925;-72
2021/05/24 08:02:07;;;;;;;8.78;4.92;;;;;;;20.27;58.00;101096.11;1769635;81;20954;-72
2021/05/24 08:04:34;;;;;;;9.30;6.17;;;;;;;20.22;58.04;101098.88;1769440;81;21495;-73
2021/05/24 08:07:00;;;;;;;10.60;5.30;;;;;;;20.15;58.30;101099.11;1769574;81;20910;-72
2021/05/24 08:09:28;;;;;;;11.85;8.60;;;;;;;20.09;58.79;101105.33;1769499;79;21076;-71
2021/05/24 08:11:55;;;;;;;12.47;5.92;;;;;;;20.05;59.07;101109.75;1769428;81;21001;-71
2021/05/24 08:14:22;;;;;;;6.15;5.08;;;;;;;20.00;59.45;101116.00;1769594;81;20888;-71
2021/05/24 08:16:50;;;;;;;8.75;3.75;;;;;;;19.95;59.47;101116.92;1769541;81;20926;-69
2021/05/24 08:19:17;;;;;;;6.30;3.37;;;;;;;19.86;58.44;101119.44;1769448;81;21443;-72
2021/05/24 08:21:45;;;;;;;5.47;2.12;;;;;;;19.76;57.73;101125.23;1769685;81;21049;-71
2021/05/24 08:24:13;;;;;;;5.95;2.85;;;;;;;19.62;58.03;101117.64;1769467;81;20859;-71
2021/05/24 08:26:40;;;;;;;4.53;2.60;;;;;;;19.46;58.64;101124.34;1769502;81;21467;-70
2021/05/24 08:29:07;;;;;;;2.98;2.47;;;;;;;19.29;59.41;101122.34;1769537;81;20937;-68
2021/05/24 08:31:35;;;;;;;3.22;2.92;;;;;;;19.12;60.41;101117.20;1769596;81;20883;-69
2021/05/24 08:34:03;;;;;;;4.83;2.60;;;;;;;18.97;61.43;101103.44;1769521;81;21441;-70
2021/05/24 08:36:30;;;;;;;3.33;2.65;;;;;;;18.84;62.20;101108.98;1769458;81;20914;-71
2021/05/24 08:38:57;;;;;;;6.25;2.20;;;;;;;18.72;62.74;101096.75;1772118;80;20977;-70
2021/05/24 08:41:26;;;;;;;2.15;1.95;;;;;;;18.62;62.42;101098.50;1777873;80;20917;-70
2021/05/24 08:43:54;;;;;;;7.50;4.12;;;;;;;18.51;62.20;101086.14;1778108;80;20893;-70
2021/05/24 08:46:20;;;;;;;7.03;3.33;;;;;;;18.39;62.87;101084.56;1778003;79;21056;-72
2021/05/24 08:48:47;;;;;;;3.47;3.17;;;;;;;18.30;63.45;101074.73;1751884;80;21552;-70
2021/05/24 08:51:30;;;;;;;6.83;4.05;;;;;;;18.22;64.51;101061.59;1777633;80;20969;-72
2021/05/24 08:54:00;;;;;;;7.17;3.12;;;;;;;18.15;64.66;101051.64;1774805;79;20945;-70
2021/05/24 08:56:33;;;;;;;6.35;3.40;;;;;;;18.08;65.67;101063.27;1777989;80;20873;-68
2021/05/24 08:59:01;;;;;;;7.95;4.03;;;;;;;17.96;66.74;101061.17;1777973;80;20996;-67
2021/05/24 09:01:31;;;;;;;5.15;3.02;;;;;;;17.85;67.84;101071.82;1778052;79;21009;-72
2021/05/24 09:04:02;;;;;;;9.13;4.85;;;;;;;17.73;68.32;101080.30;1778066;80;20953;-70
2021/05/24 09:06:39;;;;;;;9.30;3.12;;;;;;;17.56;68.93;101077.73;1777096;79;20985;-71
2021/05/24 09:09:19;;;;;;;6.75;2.90;;;;;;;17.39;69.36;101087.05;1777682;80;21387;-69
2021/05/24 09:11:47;;;;;;;9.80;2.83;;;;;;;17.27;70.29;101083.22;1777540;80;20973;-72
2021/05/24 09:14:18;;;;;;;8.50;3.35;;;;;;;17.20;70.55;101080.22;1777832;79;21489;-70
2021/05/24 09:16:51;;;;;;;5.35;4.60;;;;;;;17.18;70.71;101079.01;1778042;79;20957;-71
2021/05/24 09:19:18;;;;;;;7.97;4.87;;;;;;;17.19;70.87;101073.25;1750808;79;21533;-71
2021/05/24 09:22:04;;;;;;;7.37;4.55;;;;;;;17.23;71.10;101079.12;1777991;79;20897;-70
2021/05/24 09:24:41;;;;;;;6.03;5.15;;;;;;;17.26;71.07;101068.30;1777905;80;21685;-70
2021/05/24 09:27:33;;;;;;;18.27;4.75;;;;;;;17.27;71.10;101071.28;1777889;80;20929;-71
2021/05/24 09:30:00;;;;;;;4.35;3.58;;;;;;;17.29;70.60;101077.31;1777604;80;20933;-71
2021/05/24 09:32:29;;;;;;;3.27;2.98;;;;;;;17.30;70.19;101067.92;1777918;80;21008;-70
2021/05/24 09:35:03;;;;;;;4.62;3.87;;;;;;;17.29;70.18;101060.91;1777929;80;21481;-73
2021/05/24 09:37:36;;;;;;;5.00;4.25;;;;;;;17.26;70.18;101059.02;1778058;79;21077;-70
2021/05/24 09:40:19;;;;;;;4.10;3.80;;;;;;;17.24;70.52;101063.59;1772630;80;20938;-72
2021/05/24 09:42:46;;;;;;;3.13;2.80;;;;;;;17.23;70.63;101064.09;1770901;80;20975;-70
2021/05/24 09:45:18;;;;;;;2.80;2.60;;;;;;;17.23;70.22;101053.95;1771209;81;21041;-71
2021/05/24 09:47:45;;;;;;;8.78;3.20;;;;;;;17.17;68.95;101046.86;1771231;79;20922;-69
2021/05/24 09:50:21;;;;;;;2.67;2.47;;;;;;;17.14;68.73;101048.90;1772958;81;21053;-68
2021/05/24 09:54:01;;;;;;;6.53;2.95;;;;;;;17.12;68.98;101048.18;1777955;78;22648;-71
2021/05/24 09:56:32;;;;;;;6.20;3.30;;;;;;;17.00;69.28;101046.05;1749399;82;21387;-70
2021/05/24 09:59:13;;;;;;;3.50;3.17;;;;;;;16.91;69.64;101036.19;1749273;81;21021;-68
2021/05/24 10:01:47;;;;;;;3.22;2.92;;;;;;;16.83;70.19;101033.30;1748931;81;21009;-70
2021/05/24 10:04:23;;;;;;;5.20;2.87;;;;;;;16.72;70.62;101010.31;1749116;82;20898;-70
2021/05/24 10:06:50;;;;;;;4.40;3.00;;;;;;;16.63;70.66;100993.35;1749260;81;20993;-71
2021/05/24 10:09:20;;;;;;;4.62;3.10;;;;;;;16.58;70.83;100991.06;1749291;82;20922;-72
2021/05/24 10:11:50;;;;;;;6.45;3.25;;;;;;;16.56;71.18;101001.39;1749117;82;21499;-70
2021/05/24 10:14:21;;;;;;;6.20;3.60;;;;;;;16.52;71.24;101007.44;1749201;82;20922;-69
2021/05/24 10:16:52;;;;;;;5.92;3.95;;;;;;;16.47;71.49;101002.96;1749172;80;20874;-69
2021/05/24 10:19:20;;;;;;;4.40;3.85;;;;;;;16.45;71.22;100991.68;1749238;80;20958;-69
2021/05/24 10:21:50;;;;;;;3.22;2.85;;;;;;;16.45;71.29;100971.83;1749152;80;20934;-67
2021/05/24 10:24:25;;;;;;;3.00;2.40;;;;;;;16.40;71.56;101011.03;1749093;80;21209;-68
2021/05/24 10:26:54;;;;;;;7.70;2.30;;;;;;;16.36;72.11;101011.77;1749230;82;20973;-67
2021/05/24 10:29:21;;;;;;;4.10;2.52;;;;;;;16.30;72.45;101002.14;1748928;82;20946;-66
2021/05/24 10:31:49;;;;;;;2.47;2.27;;;;;;;16.29;73.07;100984.56;1748990;82;21411;-68
2021/05/24 10:34:23;;;;;;;3.02;2.40;;;;;;;16.27;73.20;100978.05;1749230;82;20906;-71
2021/05/24 10:37:18;;;;;;;6.72;2.50;;;;;;;16.25;73.62;100952.22;1749157;82;21073;-67
2021/05/24 10:39:55;;;;;;;3.90;2.52;;;;;;;16.20;73.60;100919.97;1749229;80;21336;-69
2021/05/24 10:42:44;;;;;;;3.50;2.15;;;;;;;16.15;73.55;100951.25;1749223;80;21830;-67
2021/05/24 10:45:22;;;;;;;3.40;1.95;;;;;;;16.08;73.82;100971.21;1749290;82;21474;-67
2021/05/24 10:47:59;;;;;;;2.40;1.82;;;;;;;16.08;73.82;100971.21;1749375;82;20962;-68
2021/05/24 10:50:30;;;;;;;4.37;2.70;;;;;;;16.07;74.28;100943.89;1749146;82;21831;-67
2021/05/24 10:53:14;;;;;;;7.37;4.40;;;;;;;16.11;74.03;100944.50;1749514;81;20977;-68
2021/05/24 10:55:47;;;;;;;;;;;;;;;16.15;74.00;100941.98;1752485;82;21491;-69
2021/05/24 10:58:15;;;;;;;20.60;18.70;;;;;;;16.21;73.82;100937.55;1749051;82;20485;-69
2021/05/24 11:01:03;;;;;;;22.82;20.68;;;;;;;16.27;73.48;100952.91;1749708;82;20989;-68
2021/05/24 11:03:33;;;;;;;6.58;5.97;;;;;;;16.36;73.52;100953.99;1748318;82;21001;-67
2021/05/24 11:06:17;;;;;;;9.83;8.78;;;;;;;16.48;73.29;100953.04;1749106;82;21068;-68
2021/05/24 11:09:04;;;;;;;9.50;8.60;;;;;;;16.59;72.38;100941.59;1749358;82;21412;-68
2021/05/24 11:11:37;;;;;;;12.03;9.88;;;;;;;16.76;71.54;100946.84;1724919;82;20981;-68
2021/05/24 11:14:08;;;;;;;11.57;10.10;;;;;;;16.89;70.98;100936.96;1749533;82;20914;-67
2021/05/24 11:16:35;;;;;;;5.37;4.70;;;;;;;16.98;70.29;100922.98;1749478;82;21070;-68
2021/05/24 11:19:13;;;;;;;6.08;5.47;;;;;;;17.04;69.56;100926.92;1749275;82;20982;-69
2021/05/24 11:21:53;;;;;;;5.55;4.80;;;;;;;17.06;69.63;100934.75;1749334;82;20957;-69
2021/05/24 11:27:11;;;;;;;3.70;3.15;;;;;;;17.09;69.57;100925.22;1749534;82;21451;-68
2021/05/24 11:29:42;;;;;;;4.60;4.12;;;;;;;17.18;69.65;100916.00;1749034;80;21515;-68
2021/05/24 11:32:28;;;;;;;5.10;2.80;;;;;;;17.36;69.70;100921.61;1749332;80;20879;-68
2021/05/24 11:34:56;;;;;;;4.70;2.50;;;;;;;17.56;69.37;100908.45;1749470;82;20981;-72